x

Ilm3 - 27 Miles Se Of Wrightsville Beach, Nc (41037) Weather Station

1:00am - Thu 17th Apr 2014 All times are EDT. -4 hours from GMT.

  • Wind
    22mph, 27mph gusts
  • 空気 Temp 48°f
  • Sea Pressure 1029.3mb
  • Ilm3 - 27 Miles Se Of Wrightsville Beach, Nc
  • Ilm3 - 27 Miles Se Of Wrightsville Beach, Nc

More Historic Weather Station data

Upgrade to MSW Pro to gain access to the past 30 days of data for over 8000 Wavebouys and Weather Stations around the globe.

Join Pro

Comparision Forecast

View Surf forecast
   
Thu 04/17 1:00am 22 27 mph 1029.3mb 48f
12:00am 29 34 mph 1029.1mb 48f
Wed 04/16 11:00pm 29 34 mph 1029.1mb 48f
10:00pm 27 34 mph 1029.1mb 49f
9:00pm 27 31 mph 1029mb 49f
8:00pm 22 27 mph 1028.2mb 49f
7:00pm 25 29 mph 1027.2mb 49f
6:00pm 27 31 mph 1027.5mb 50f
5:00pm 22 27 mph 1026.7mb 50f
4:00pm 25 31 mph 1026.6mb 48f
3:00pm 25 29 mph 1026.5mb 47f
2:00pm 22 27 mph 1027.4mb 45f
1:00pm 22 29 mph 1027.2mb 45f
12:00pm 27 31 mph 1027.2mb 44f
11:00am 27 31 mph 1026.4mb 41f
10:00am 29 31 mph 1025.7mb 42f
9:00am 29 34 mph 1024mb 42f
8:00am 31 36 mph 1022.8mb 42f
7:00am 31 38 mph 1022.3mb 44f
6:00am 29 34 mph 1019.9mb 44f
5:00am 36 40 mph 1017.6mb 45f
4:00am 34 38 mph 1016.6mb 47f
3:00am 36 43 mph 1014.5mb 48f
2:00am 25 29 mph 1013.9mb 50f
1:00am 31 45 mph 1011.1mb 51f
12:00am 34 40 mph 1011.2mb 53f
Tue 04/15 11:00pm 38 45 mph 1007.6mb 55f
10:00pm 18 22 mph 1005mb 65f
9:00pm 20 22 mph 1005.5mb 66f
8:00pm 22 27 mph 1005.3mb 66f
7:00pm 20 25 mph 1005.4mb 65f
6:00pm 20 25 mph 1006mb 64f
5:00pm 25 31 mph 1006mb 64f
4:00pm 22 25 mph 1007.3mb 64f
3:00pm 18 25 mph 1008.2mb 65f
1:00pm 20 22 mph 1008.9mb 65f
12:00pm 20 22 mph 1009.2mb 65f
11:00am 20 27 mph 1009.4mb 64f
10:00am 18 22 mph 1009.4mb 64f
9:00am 22 29 mph 1009.2mb 67f
8:00am 20 25 mph 1009.3mb 67f
7:00am 20 25 mph 1009.6mb 67f
6:00am 22 27 mph 1009.9mb 66f
5:00am 22 27 mph 1010.7mb 67f
4:00am 20 22 mph 1010.4mb 66f
3:00am 18 22 mph 1011.4mb 66f
2:00am 18 20 mph 1011.8mb 66f
1:00am 16 20 mph 1012.5mb 66f
Mon 04/14 11:00pm 16 20 mph 1013.7mb 66f
10:00pm 11 13 mph 1014.4mb 65f
9:00pm 18 20 mph 1014.5mb 64f
8:00pm 13 16 mph 1014.7mb 66f
7:00pm 11 13 mph 1014.8mb 65f
6:00pm 11 13 mph 1015.1mb 66f
5:00pm 9 13 mph 1015.7mb 66f
4:00pm 11 13 mph 1016.5mb 66f
3:00pm 9 11 mph 1017.4mb 66f
2:00pm 9 13 mph 1017.7mb 66f
1:00pm 11 13 mph 1018.4mb 66f
12:00pm 9 11 mph 1019.1mb 66f
11:00am 9 11 mph 1019.5mb 66f
10:00am 9 11 mph 1019.5mb 65f
9:00am 9 13 mph 1019.2mb 66f
8:00am 9 13 mph 1019.1mb 65f
7:00am 11 13 mph 1018.7mb 65f
6:00am 9 11 mph 1018.6mb 64f
5:00am 9 11 mph 1019.1mb 65f
4:00am 7 9 mph 1019.7mb 64f
3:00am 11 16 mph 1020.2mb 65f
2:00am 13 16 mph 1020.7mb 65f
1:00am 13 16 mph 1021mb 65f
12:00am 13 16 mph 1021.3mb 66f
Sun 04/13 11:00pm 13 16 mph 1021.5mb 66f
10:00pm 11 13 mph 1021.7mb 66f
9:00pm 9 11 mph 1021.7mb 67f
8:00pm 4 7 mph 1021.6mb 67f
7:00pm 4 7 mph 1021.8mb 67f
6:00pm 4
mph
1021.8mb 68f
5:00pm 2 4 mph 1021.9mb 69f
4:00pm 4
mph
1022.2mb 68f
3:00pm 2 4 mph 1023.1mb 68f
2:00pm 4 7 mph 1023.6mb 67f
1:00pm 4
mph
1023.9mb 66f
12:00pm 4 7 mph 1024.2mb 66f
10:00am 4
mph
1024.6mb 64f
9:00am 2 4 mph 1024.3mb 66f
8:00am 2 4 mph 1024mb 66f